Time;durP1;ratioP1;P1;durP2;ratioP2;P2;SDS_P1;SDS_P2;PMS_P1;PMS_P2;Temp;Humidity;BMP_temperature;BMP_pressure;BME280_temperature;BME280_humidity;BME280_pressure;Samples;Min_cycle;Max_cycle;Signal;HPM_P1;HPM_P2
2024/03/11 00:00:57;;;;;;;;;;;;;;;18.17;64.38;100850.63;7388734;19;986;-37
2024/03/11 00:03:27;;;;;;;;;;;;;;;18.19;64.32;100829.94;7388599;19;1585;-37
2024/03/11 00:05:56;;;;;;;;;;;;;;;18.23;64.24;100846.59;7386677;19;1919;-37
2024/03/11 00:08:27;;;;;;;;;;;;;;;18.23;64.04;100834.06;7387896;19;1581;-38
2024/03/11 00:11:00;;;;;;;;;;;;;;;18.15;64.42;100830.34;7388418;19;1489;-38
2024/03/11 00:13:32;;;;;;;;;;;;;;;18.14;64.29;100828.63;7387828;19;1405;-39
2024/03/11 00:16:02;;;;;;;;;;;;;;;18.08;64.48;100819.28;7388720;19;1058;-38
2024/03/11 00:18:31;;;;;;;;;;;;;;;18.20;64.30;100833.47;7387439;19;1553;-38
2024/03/11 00:20:59;;;;;;;;;;;;;;;18.14;64.60;100834.81;7380859;19;1631;-39
2024/03/11 00:23:30;;;;;;;;;;;;;;;18.15;64.53;100823.16;7383072;19;1537;-38
2024/03/11 00:25:58;;;;;;;;;;;;;;;18.12;64.49;100819.88;7386796;19;1863;-38
2024/03/11 00:28:29;;;;;;;;;;;;;;;18.18;64.42;100824.72;7387362;19;1476;-37
2024/03/11 00:31:00;;;;;;;;;;;;;;;18.14;64.37;100824.13;7386827;19;1544;-40
2024/03/11 00:33:29;;;;;;;;;;;;;;;18.16;64.55;100832.88;7385464;19;1663;-37
2024/03/11 00:35:57;;;;;;;;;;;;;;;17.84;64.48;100782.06;7393982;19;1233;-38
2024/03/11 00:38:25;;;;;;;;;;;;;;;18.09;64.49;100811.13;7395470;19;1520;-37
2024/03/11 00:40:56;;;;;;;;;;;;;;;18.14;64.47;100831.31;7394844;19;1622;-37
2024/03/11 00:43:25;;;;;;;;;;;;;;;18.13;64.28;100821.59;7394560;19;1168;-37
2024/03/11 00:45:53;;;;;;;;;;;;;;;18.10;64.40;100820.00;7392268;19;1864;-38
2024/03/11 00:48:22;;;;;;;;;;;;;;;18.13;64.23;100822.44;7394092;19;1551;-38
2024/03/11 00:50:50;;;;;;;;;;;;;;;18.12;64.17;100817.22;7393215;19;1582;-38
2024/03/11 00:53:18;;;;;;;;;;;;;;;18.12;64.38;100818.03;7394531;19;1539;-37
2024/03/11 00:55:47;;;;;;;;;;;;;;;18.05;64.35;100820.41;7393929;19;1711;-37
2024/03/11 00:58:19;;;;;;;;;;;;;;;17.99;64.53;100820.06;7394287;19;1237;-38
2024/03/11 01:00:47;;;;;;;;;;;;;;;17.96;64.77;100804.25;7394376;19;1080;-37
2024/03/11 01:03:16;;;;;;;;;;;;;;;18.14;64.20;100813.41;7393771;19;1378;-37
2024/03/11 01:05:44;;;;;;;;;;;;;;;18.33;64.05;100806.53;7391342;19;1853;-37
2024/03/11 01:08:14;;;;;;;;;;;;;;;18.43;63.44;100776.16;7394047;19;1620;-37
2024/03/11 01:10:42;;;;;;;;;;;;;;;18.41;63.98;100810.25;7393491;19;1191;-38
2024/03/11 01:13:10;;;;;;;;;;;;;;;18.37;63.77;100795.41;7393931;19;1219;-37
2024/03/11 01:15:41;;;;;;;;;;;;;;;18.20;63.86;100761.19;7394279;19;1457;-37
2024/03/11 01:18:10;;;;;;;;;;;;;;;18.27;63.81;100802.53;7393662;19;1454;-38
2024/03/11 01:20:38;;;;;;;;;;;;;;;18.27;63.80;100802.53;7393486;19;1488;-38
2024/03/11 01:23:07;;;;;;;;;;;;;;;18.22;63.85;100805.63;7379938;19;1469;-38
2024/03/11 01:25:36;;;;;;;;;;;;;;;18.15;64.26;100793.72;7391680;19;1895;-38
2024/03/11 01:28:08;;;;;;;;;;;;;;;18.16;64.22;100811.47;7393208;19;1473;-38
2024/03/11 01:30:37;;;;;;;;;;;;;;;18.06;64.34;100808.72;7393417;19;1614;-38
2024/03/11 01:33:09;;;;;;;;;;;;;;;18.11;64.33;100816.38;7392738;19;1326;-38
2024/03/11 01:35:40;;;;;;;;;;;;;;;18.06;64.20;100813.22;7392351;19;1925;-37
2024/03/11 01:38:09;;;;;;;;;;;;;;;18.09;64.18;100795.06;7392275;19;1449;-42
2024/03/11 01:40:38;;;;;;;;;;;;;;;18.06;64.10;100799.84;7392403;19;1587;-37
2024/03/11 01:43:06;;;;;;;;;;;;;;;18.08;64.17;100800.56;7392791;19;1456;-37
2024/03/11 01:45:35;;;;;;;;;;;;;;;18.08;64.01;100803.22;7391064;19;1847;-37
2024/03/11 01:48:03;;;;;;;;;;;;;;;18.16;63.93;100813.28;7392224;19;1546;-39
2024/03/11 01:50:34;;;;;;;;;;;;;;;18.08;63.81;100797.88;7392431;19;1422;-39
2024/03/11 01:53:03;;;;;;;;;;;;;;;18.15;63.83;100798.22;7389673;19;1437;-38
2024/03/11 01:55:32;;;;;;;;;;;;;;;18.15;63.85;100793.72;7393322;19;1071;-37
2024/03/11 01:58:03;;;;;;;;;;;;;;;18.03;64.16;100792.91;7392111;19;1512;-37
2024/03/11 02:00:31;;;;;;;;;;;;;;;18.04;64.18;100801.78;7392631;19;1551;-38
2024/03/11 02:03:00;;;;;;;;;;;;;;;18.03;64.13;100802.78;7391938;19;1468;-37
2024/03/11 02:05:29;;;;;;;;;;;;;;;18.25;63.69;100799.16;7391713;19;1858;-37
2024/03/11 02:08:01;;;;;;;;;;;;;;;19.19;61.44;100801.78;7392108;19;1614;-37
2024/03/11 02:10:29;;;;;;;;;;;;;;;19.73;60.21;100794.31;7391808;19;1433;-37
2024/03/11 02:12:59;;;;;;;;;;;;;;;20.07;59.05;100797.44;7392593;19;1188;-37
2024/03/11 02:15:27;;;;;;;;;;;;;;;20.18;58.96;100799.13;7391996;19;1861;-38
2024/03/11 02:17:55;;;;;;;;;;;;;;;20.04;59.23;100790.53;7393242;19;1462;-38
2024/03/11 02:20:25;;;;;;;;;;;;;;;20.12;59.22;100805.09;7391602;19;1416;-38
2024/03/11 02:22:53;;;;;;;;;;;;;;;20.02;59.42;100797.03;7377624;19;1304;-38
2024/03/11 02:25:26;;;;;;;;;;;;;;;20.01;59.43;100785.41;7390157;19;1857;-37
2024/03/11 02:27:56;;;;;;;;;;;;;;;20.04;59.40;100795.88;7391177;19;1558;-38
2024/03/11 02:30:24;;;;;;;;;;;;;;;19.93;59.52;100792.50;7391735;19;1493;-37
2024/03/11 02:32:52;;;;;;;;;;;;;;;19.99;59.53;100786.56;7390979;19;1484;-38
2024/03/11 02:35:21;;;;;;;;;;;;;;;20.02;59.46;100791.66;7391105;19;1441;-38
2024/03/11 02:37:49;;;;;;;;;;;;;;;20.09;59.40;100797.28;7390544;19;1711;-41
2024/03/11 02:40:19;;;;;;;;;;;;;;;20.03;59.51;100788.84;7391005;19;1505;-37
2024/03/11 02:42:50;;;;;;;;;;;;;;;20.06;59.54;100799.28;7390149;19;1507;-37
2024/03/11 02:45:19;;;;;;;;;;;;;;;20.11;59.41;100790.78;7390527;19;1834;-37
2024/03/11 02:47:49;;;;;;;;;;;;;;;20.07;59.56;100778.63;7391391;19;1398;-38
2024/03/11 02:50:17;;;;;;;;;;;;;;;20.09;59.38;100781.19;7391828;19;1068;-38
2024/03/11 02:52:46;;;;;;;;;;;;;;;20.10;59.36;100802.53;7392276;19;1004;-37
2024/03/11 02:55:18;;;;;;;;;;;;;;;20.13;59.28;100796.03;7391473;19;1122;-38
2024/03/11 02:57:48;;;;;;;;;;;;;;;20.18;59.15;100809.88;7390238;19;1512;-38
2024/03/11 03:00:20;;;;;;;;;;;;;;;20.24;59.05;100801.25;7391208;19;1528;-37
2024/03/11 03:02:49;;;;;;;;;;;;;;;20.26;58.96;100813.53;7390551;19;1460;-38
2024/03/11 03:05:18;;;;;;;;;;;;;;;20.22;59.08;100809.44;7390485;19;1846;-37
2024/03/11 03:07:46;;;;;;;;;;;;;;;20.08;59.52;100811.72;7390454;19;1531;-38
2024/03/11 03:10:14;;;;;;;;;;;;;;;19.81;60.29;100807.88;7391137;19;1604;-37
2024/03/11 03:12:43;;;;;;;;;;;;;;;19.75;60.49;100809.28;7389303;19;1417;-37
2024/03/11 03:15:12;;;;;;;;;;;;;;;19.86;60.43;100811.84;7389592;19;1432;-37
2024/03/11 03:17:43;;;;;;;;;;;;;;;19.81;60.33;100795.31;7389547;19;1377;-38
2024/03/11 03:20:12;;;;;;;;;;;;;;;19.84;60.44;100800.41;7389515;19;1492;-38
2024/03/11 03:22:41;;;;;;;;;;;;;;;20.05;59.63;100800.28;7374484;19;1299;-37
2024/03/11 03:25:10;;;;;;;;;;;;;;;20.24;59.08;100793.19;7388504;19;1867;-37
2024/03/11 03:27:38;;;;;;;;;;;;;;;20.33;58.85;100786.94;7388744;19;1652;-37
2024/03/11 03:30:08;;;;;;;;;;;;;;;20.37;58.72;100811.69;7389202;19;1559;-37
2024/03/11 03:32:37;;;;;;;;;;;;;;;20.39;58.64;100798.97;7388171;19;1554;-37
2024/03/11 03:35:09;;;;;;;;;;;;;;;20.46;58.50;100794.72;7387799;19;1575;-37
2024/03/11 03:37:38;;;;;;;;;;;;;;;20.42;58.69;100779.88;7388804;19;1089;-37
2024/03/11 03:40:15;;;;;;;;;;;;;;;20.47;58.47;100782.97;7388798;19;1449;-37
2024/03/11 03:42:44;;;;;;;;;;;;;;;20.43;58.61;100778.88;7388893;19;1546;-37
2024/03/11 03:45:12;;;;;;;;;;;;;;;20.43;58.57;100781.56;7388713;19;1865;-38
2024/03/11 03:47:40;;;;;;;;;;;;;;;20.45;58.41;100787.63;7389087;19;1239;-38
2024/03/11 03:50:12;;;;;;;;;;;;;;;20.50;58.34;100793.44;7388511;19;1254;-37
2024/03/11 03:52:41;;;;;;;;;;;;;;;20.54;58.45;100792.16;7388222;19;1804;-37
2024/03/11 03:55:11;;;;;;;;;;;;;;;20.56;58.37;100800.06;7388413;19;1508;-38
2024/03/11 03:57:39;;;;;;;;;;;;;;;20.43;58.50;100795.88;7388075;19;1562;-37
2024/03/11 04:00:15;;;;;;;;;;;;;;;20.26;58.98;100810.84;7388438;19;1560;-37
2024/03/11 04:02:43;;;;;;;;;;;;;;;19.79;60.18;100815.22;7387489;19;1155;-38
2024/03/11 04:05:15;;;;;;;;;;;;;;;19.46;60.80;100810.06;7387698;19;1509;-38
2024/03/11 04:07:43;;;;;;;;;;;;;;;19.20;61.45;100814.19;7387933;19;1653;-38
2024/03/11 04:10:13;;;;;;;;;;;;;;;19.11;62.07;100815.03;7385790;19;1152;-38
2024/03/11 04:12:38;;;;;;;;;;;;;;;18.97;62.06;100814.41;7387521;19;1642;-38
2024/03/11 04:15:09;;;;;;;;;;;;;;;18.84;62.42;100816.44;7388456;19;1485;-37
2024/03/11 04:17:38;;;;;;;;;;;;;;;19.27;61.54;100840.31;7388116;19;1311;-40
2024/03/11 04:20:11;;;;;;;;;;;;;;;19.47;61.07;100843.91;7388609;19;1563;-38
2024/03/11 04:22:43;;;;;;;;;;;;;;;19.48;61.12;100842.13;7373360;19;1236;-38
2024/03/11 04:25:15;;;;;;;;;;;;;;;19.67;60.53;100857.38;7387924;19;1475;-38
2024/03/11 04:27:44;;;;;;;;;;;;;;;19.66;60.50;100866.44;7386116;19;1849;-38
2024/03/11 04:30:14;;;;;;;;;;;;;;;19.65;60.48;100848.63;7387656;19;1589;-38
2024/03/11 04:32:43;;;;;;;;;;;;;;;19.62;60.70;100851.59;7387543;19;1489;-38
2024/03/11 04:35:12;;;;;;;;;;;;;;;19.63;60.69;100839.88;7387963;19;1303;-38
2024/03/11 04:37:43;;;;;;;;;;;;;;;19.62;60.53;100832.84;7387476;19;1481;-38
2024/03/11 04:40:12;;;;;;;;;;;;;;;19.60;60.71;100834.81;7387356;19;1550;-38
2024/03/11 04:42:40;;;;;;;;;;;;;;;19.64;60.40;100833.53;7387201;19;1615;-38
2024/03/11 04:45:09;;;;;;;;;;;;;;;19.61;60.48;100834.63;7387600;19;1472;-38
2024/03/11 04:47:37;;;;;;;;;;;;;;;19.61;60.54;100823.06;7384947;19;1848;-38
2024/03/11 04:50:07;;;;;;;;;;;;;;;19.61;60.46;100823.06;7386807;19;1558;-37
2024/03/11 04:52:35;;;;;;;;;;;;;;;19.67;60.53;100830.56;7387179;19;1312;-38
2024/03/11 04:55:07;;;;;;;;;;;;;;;19.66;60.43;100824.34;7385680;19;1515;-38
2024/03/11 04:57:35;;;;;;;;;;;;;;;19.66;60.49;100826.19;7385880;19;1626;-37
2024/03/11 05:00:05;;;;;;;;;;;;;;;19.68;60.41;100840.31;7386194;19;1278;-37
2024/03/11 05:02:38;;;;;;;;;;;;;;;19.61;60.42;100831.13;7385789;19;1556;-38
2024/03/11 05:05:07;;;;;;;;;;;;;;;19.60;60.61;100826.75;7386041;19;1507;-37
2024/03/11 05:07:36;;;;;;;;;;;;;;;19.72;60.55;100811.41;7380223;19;1844;-37
2024/03/11 05:10:07;;;;;;;;;;;;;;;19.71;60.39;100823.97;7384017;19;1361;-39
2024/03/11 05:12:36;;;;;;;;;;;;;;;19.73;60.47;100824.66;7385195;19;1533;-38
2024/03/11 05:15:05;;;;;;;;;;;;;;;19.77;60.40;100820.72;7385510;19;1677;-37
2024/03/11 05:17:34;;;;;;;;;;;;;;;19.84;60.38;100829.94;7386150;19;1437;-38
2024/03/11 05:20:05;;;;;;;;;;;;;;;19.89;60.46;100824.13;7385820;19;1613;-38
2024/03/11 05:22:34;;;;;;;;;;;;;;;19.95;60.50;100822.72;7382785;19;1380;-37
2024/03/11 05:25:05;;;;;;;;;;;;;;;19.73;60.89;100830.03;7390472;19;1480;-37
2024/03/11 05:27:36;;;;;;;;;;;;;;;19.38;62.27;100835.88;7391128;19;1878;-37
2024/03/11 05:30:04;;;;;;;;;;;;;;;19.16;62.31;100820.81;7391124;19;1381;-37
2024/03/11 05:32:32;;;;;;;;;;;;;;;19.02;62.78;100820.22;7389287;19;1166;-37
2024/03/11 05:35:00;;;;;;;;;;;;;;;19.03;62.52;100816.53;7389906;19;1946;-37
2024/03/11 05:37:29;;;;;;;;;;;;;;;18.94;62.66;100820.03;7389720;19;1582;-38
2024/03/11 05:39:59;;;;;;;;;;;;;;;19.35;61.57;100820.03;7392576;19;1621;-37
2024/03/11 05:42:27;;;;;;;;;;;;;;;19.51;61.13;100814.16;7390057;19;1575;-37
2024/03/11 05:44:58;;;;;;;;;;;;;;;19.68;61.00;100821.53;7389381;19;962;-38
2024/03/11 05:47:27;;;;;;;;;;;;;;;19.74;60.65;100809.44;7383142;19;1862;-45
2024/03/11 05:49:56;;;;;;;;;;;;;;;19.75;60.40;100795.88;7383546;19;1814;-38
2024/03/11 05:52:25;;;;;;;;;;;;;;;19.75;60.39;100809.28;7388547;19;1440;-38
2024/03/11 05:54:53;;;;;;;;;;;;;;;19.74;60.44;100801.41;7388176;19;1108;-37
2024/03/11 05:57:25;;;;;;;;;;;;;;;19.73;60.31;100805.88;7388067;19;1504;-44
2024/03/11 05:59:54;;;;;;;;;;;;;;;19.75;60.38;100811.97;7391203;19;1492;-37
2024/03/11 06:02:25;;;;;;;;;;;;;;;19.76;60.35;100823.56;7391191;19;1480;-37
2024/03/11 06:04:53;;;;;;;;;;;;;;;19.76;60.40;100816.34;7391205;19;1595;-37
2024/03/11 06:07:23;;;;;;;;;;;;;;;19.73;60.29;100830.03;7389608;19;1838;-37
2024/03/11 06:09:51;;;;;;;;;;;;;;;19.79;60.08;100807.19;7390674;19;1236;-38
2024/03/11 06:12:20;;;;;;;;;;;;;;;19.78;60.23;100817.06;7391383;19;1519;-37
2024/03/11 06:14:48;;;;;;;;;;;;;;;19.74;60.15;100812.97;7391571;19;1687;-37
2024/03/11 06:17:17;;;;;;;;;;;;;;;19.77;60.07;100814.50;7391832;19;1621;-39
2024/03/11 06:19:48;;;;;;;;;;;;;;;19.73;60.22;100822.00;7391813;19;1149;-38
2024/03/11 06:22:16;;;;;;;;;;;;;;;19.76;60.07;100811.00;7391779;19;1570;-38
2024/03/11 06:24:45;;;;;;;;;;;;;;;19.79;60.05;100805.34;7375671;19;1543;-37
2024/03/11 06:27:14;;;;;;;;;;;;;;;19.82;59.86;100804.22;7389688;19;1861;-38
2024/03/11 06:29:42;;;;;;;;;;;;;;;19.76;60.15;100802.94;7388099;19;1607;-37
2024/03/11 06:32:11;;;;;;;;;;;;;;;19.80;60.03;100788.25;7388926;19;1453;-37
2024/03/11 06:34:40;;;;;;;;;;;;;;;19.79;59.85;100804.50;7390610;19;1549;-37
2024/03/11 06:37:13;;;;;;;;;;;;;;;19.73;60.04;100791.63;7391003;19;1452;-38
2024/03/11 06:39:41;;;;;;;;;;;;;;;19.72;60.04;100798.00;7390476;19;1500;-37
2024/03/11 06:42:10;;;;;;;;;;;;;;;19.68;60.16;100787.50;7390903;19;1486;-37
2024/03/11 06:44:38;;;;;;;;;;;;;;;19.81;59.87;100806.03;7390365;19;1339;-37
2024/03/11 06:47:08;;;;;;;;;;;;;;;19.81;59.73;100805.19;7390114;19;1825;-38
2024/03/11 06:49:36;;;;;;;;;;;;;;;19.80;59.77;100804.34;7390519;19;1551;-35
2024/03/11 06:52:07;;;;;;;;;;;;;;;19.75;60.01;100800.41;7389909;19;1513;-37
2024/03/11 06:54:38;;;;;;;;;;;;;;;19.88;59.72;100808.19;7389244;19;1504;-37
2024/03/11 06:57:10;;;;;;;;;;;;;;;19.84;59.80;100811.13;7390066;19;1395;-36
2024/03/11 06:59:38;;;;;;;;;;;;;;;19.86;59.80;100798.44;7389482;19;1441;-37
2024/03/11 07:02:07;;;;;;;;;;;;;;;19.81;59.96;100800.66;7389413;19;1435;-37
2024/03/11 07:04:36;;;;;;;;;;;;;;;19.80;59.89;100790.09;7389428;19;1453;-37
2024/03/11 07:07:06;;;;;;;;;;;;;;;19.85;59.74;100777.09;7389147;19;1838;-38
2024/03/11 07:09:34;;;;;;;;;;;;;;;19.86;59.64;100784.16;7391480;19;1489;-37
2024/03/11 07:12:06;;;;;;;;;;;;;;;19.88;59.84;100784.88;7389810;19;1177;-37
2024/03/11 07:14:37;;;;;;;;;;;;;;;19.83;59.78;100776.38;7389263;19;1404;-37
2024/03/11 07:17:07;;;;;;;;;;;;;;;19.91;59.73;100770.31;7389995;19;1183;-37
2024/03/11 07:19:38;;;;;;;;;;;;;;;19.93;59.56;100768.34;7389686;19;1559;-38
2024/03/11 07:22:07;;;;;;;;;;;;;;;19.95;59.34;100761.84;7388709;19;1452;-37
2024/03/11 07:24:37;;;;;;;;;;;;;;;19.95;59.49;100750.25;7373944;19;1380;-43
2024/03/11 07:27:08;;;;;;;;;;;;;;;19.98;59.42;100769.63;7387231;19;1859;-38
2024/03/11 07:29:36;;;;;;;;;;;;;;;19.99;59.31;100775.81;7389029;19;1113;-38
2024/03/11 07:32:06;;;;;;;;;;;;;;;20.00;59.46;100780.22;7387473;19;1423;-37
2024/03/11 07:34:34;;;;;;;;;;;;;;;19.96;59.47;100776.97;7388787;19;1441;-37
2024/03/11 07:37:04;;;;;;;;;;;;;;;19.59;60.10;100791.00;7389163;19;1535;-38
2024/03/11 07:39:35;;;;;;;;;;;;;;;19.31;61.22;100775.72;7389134;19;1064;-37
2024/03/11 07:42:07;;;;;;;;;;;;;;;19.11;61.68;100764.09;7388352;19;1907;-37
2024/03/11 07:44:38;;;;;;;;;;;;;;;19.03;61.82;100751.38;7388865;19;1543;-37
2024/03/11 07:47:07;;;;;;;;;;;;;;;19.14;61.31;100763.81;7387334;19;1865;-37
2024/03/11 07:49:36;;;;;;;;;;;;;;;18.82;61.37;100725.50;7389229;19;1449;-38
2024/03/11 07:52:04;;;;;;;;;;;;;;;19.63;60.37;100760.22;7387616;19;1440;-37
2024/03/11 07:54:33;;;;;;;;;;;;;;;19.81;59.87;100760.41;7387081;19;1504;-37
2024/03/11 07:57:01;;;;;;;;;;;;;;;19.81;59.58;100743.47;7386735;19;1512;-37
2024/03/11 07:59:30;;;;;;;;;;;;;;;19.46;60.54;100748.38;7388350;19;1389;-37
2024/03/11 08:02:01;;;;;;;;;;;;;;;19.27;60.99;100753.69;7388557;19;1614;-37
2024/03/11 08:04:30;;;;;;;;;;;;;;;19.17;61.37;100750.16;7387769;19;1430;-37
2024/03/11 08:06:59;;;;;;;;;;;;;;;18.99;61.93;100750.78;7387600;19;1852;-37
2024/03/11 08:09:28;;;;;;;;;;;;;;;18.85;62.11;100749.31;7388239;19;1618;-37
2024/03/11 08:11:57;;;;;;;;;;;;;;;19.42;60.99;100746.97;7377317;19;1391;-37
2024/03/11 08:14:25;;;;;;;;;;;;;;;19.84;60.07;100745.91;7380259;19;1377;-37
2024/03/11 08:16:54;;;;;;;;;;;;;;;19.86;60.11;100723.28;7384109;19;1263;-37
2024/03/11 08:19:25;;;;;;;;;;;;;;;19.59;60.77;100731.16;7383163;19;1622;-37
2024/03/11 08:21:53;;;;;;;;;;;;;;;19.43;61.44;100710.25;7382373;19;1152;-37
2024/03/11 08:24:24;;;;;;;;;;;;;;;19.17;62.08;100683.97;7368259;19;1402;-37
2024/03/11 08:26:52;;;;;;;;;;;;;;;19.11;62.28;100689.88;7381734;19;1874;-37
2024/03/11 08:29:21;;;;;;;;;;;;;;;19.03;62.49;100669.13;7383070;19;1389;-37
2024/03/11 08:31:49;;;;;;;;;;;;;;;19.10;62.32;100671.25;7381252;19;2548;-38
2024/03/11 08:34:18;;;;;;;;;;;;;;;19.45;61.33;100692.19;7383527;19;1073;-37
2024/03/11 08:36:51;;;;;;;;;;;;;;;19.79;60.50;100695.31;7383212;19;1405;-37
2024/03/11 08:39:21;;;;;;;;;;;;;;;19.63;60.80;100741.47;7383325;19;1473;-37
2024/03/11 08:41:53;;;;;;;;;;;;;;;19.42;61.42;100763.06;7381507;19;1432;-37
2024/03/11 08:44:22;;;;;;;;;;;;;;;19.27;61.92;100785.88;7382827;19;1053;-38
2024/03/11 08:46:51;;;;;;;;;;;;;;;19.16;62.32;100780.59;7382874;19;2148;-37
2024/03/11 08:49:21;;;;;;;;;;;;;;;19.05;62.38;100760.97;7382590;19;1487;-37
2024/03/11 08:51:52;;;;;;;;;;;;;;;18.94;62.66;100769.13;7384622;19;1202;-37
2024/03/11 08:54:22;;;;;;;;;;;;;;;19.18;62.27;100755.38;7383384;19;1550;-37
2024/03/11 08:56:50;;;;;;;;;;;;;;;19.63;60.91;100737.94;7388541;19;1515;-37
2024/03/11 08:59:19;;;;;;;;;;;;;;;19.89;60.17;100740.09;7390838;19;1679;-37
2024/03/11 09:01:49;;;;;;;;;;;;;;;19.57;61.07;100730.44;7389144;19;1423;-37
2024/03/11 09:04:18;;;;;;;;;;;;;;;19.35;61.51;100750.31;7390129;19;1516;-38
2024/03/11 09:06:47;;;;;;;;;;;;;;;19.23;62.03;100754.97;7390372;19;1401;-37
2024/03/11 09:09:24;;;;;;;;;;;;;;;19.10;62.35;100752.53;7386839;19;1846;-37
2024/03/11 09:11:56;;;;;;;;;;;;;;;18.94;62.69;100736.09;7388359;19;1202;-37
2024/03/11 09:14:25;;;;;;;;;;;;;;;19.11;62.24;100767.63;7389886;19;1614;-37
2024/03/11 09:16:53;;;;;;;;;;;;;;;19.50;61.25;100745.41;7390268;19;1057;-37
2024/03/11 09:19:23;;;;;;;;;;;;;;;19.93;60.06;100753.06;7389369;19;1571;-37
2024/03/11 09:21:52;;;;;;;;;;;;;;;20.04;59.78;100741.34;7388946;19;1501;-39
2024/03/11 09:24:23;;;;;;;;;;;;;;;20.04;59.51;100730.63;7374708;19;1516;-37
2024/03/11 09:26:52;;;;;;;;;;;;;;;20.01;59.76;100737.09;7387727;19;1448;-37
2024/03/11 09:29:20;;;;;;;;;;;;;;;20.10;59.53;100719.31;7386375;19;1842;-36
2024/03/11 09:31:49;;;;;;;;;;;;;;;20.03;59.38;100734.28;7388044;19;1448;-44
2024/03/11 09:34:17;;;;;;;;;;;;;;;19.99;59.69;100743.63;7388184;19;1096;-36
2024/03/11 09:36:46;;;;;;;;;;;;;;;20.07;59.38;100751.78;7387155;19;1844;-37
2024/03/11 09:39:14;;;;;;;;;;;;;;;20.09;59.19;100739.06;7385857;19;1650;-37
2024/03/11 09:41:45;;;;;;;;;;;;;;;20.14;59.15;100774.41;7388954;19;1215;-37
2024/03/11 09:44:13;;;;;;;;;;;;;;;20.15;59.21;100776.09;7388210;19;1465;-37
2024/03/11 09:46:43;;;;;;;;;;;;;;;19.93;59.78;100765.66;7388655;19;1219;-36
2024/03/11 09:49:14;;;;;;;;;;;;;;;19.57;60.71;100746.53;7387394;19;1847;-36
2024/03/11 09:51:44;;;;;;;;;;;;;;;19.39;61.26;100728.44;7388929;19;1282;-37
2024/03/11 09:54:14;;;;;;;;;;;;;;;19.26;61.50;100727.88;7388684;19;1563;-36
2024/03/11 09:56:47;;;;;;;;;;;;;;;19.22;61.60;100729.16;7387049;19;1403;-37
2024/03/11 09:59:18;;;;;;;;;;;;;;;19.11;61.72;100710.50;7389855;19;1524;-37
2024/03/11 10:01:52;;;;;;;;;;;;;;;19.16;61.95;100698.38;7391274;19;1143;-37
2024/03/11 10:04:21;;;;;;;;;;;;;;;19.46;61.12;100728.75;7386285;19;1556;-37
2024/03/11 10:06:56;;;;;;;;;;;;;;;19.86;59.95;100728.66;7388323;19;1504;-37
2024/03/11 10:09:24;;;;;;;;;;;;;;;19.59;60.41;100715.91;7386694;19;1879;-37
2024/03/11 10:12:08;;;;;;;;;;;;;;;19.37;61.31;100730.44;7387096;19;1089;-37
2024/03/11 10:14:38;;;;;;;;;;;;;;;19.21;61.60;100738.16;7387696;19;1603;-37
2024/03/11 10:17:20;;;;;;;;;;;;;;;18.98;62.15;100740.19;7388840;19;1179;-38
2024/03/11 10:19:51;;;;;;;;;;;;;;;18.96;62.40;100767.16;7389832;19;1073;-37
2024/03/11 10:22:29;;;;;;;;;;;;;;;19.08;62.09;100775.94;7390448;19;1797;-37
2024/03/11 10:24:58;;;;;;;;;;;;;;;19.45;61.14;100786.06;7375298;19;1453;-37
2024/03/11 10:27:31;;;;;;;;;;;;;;;19.79;60.20;100769.59;7391154;19;1865;-37
2024/03/11 10:30:00;;;;;;;;;;;;;;;19.54;60.63;100763.78;7390686;19;1571;-37
2024/03/11 10:32:36;;;;;;;;;;;;;;;19.14;61.50;100778.09;7390457;19;1420;-37
2024/03/11 10:35:09;;;;;;;;;;;;;;;18.97;60.59;100789.44;7389334;19;1413;-37
2024/03/11 10:37:37;;;;;;;;;;;;;;;18.84;60.64;100800.34;7389351;19;2356;-37
2024/03/11 10:40:04;;;;;;;;;;;;;;;18.77;61.24;100796.50;7390342;19;1512;-37
2024/03/11 10:42:36;;;;;;;;;;;;;;;19.24;59.71;100786.16;7391170;19;1542;-36
2024/03/11 10:45:06;;;;;;;;;;;;;;;19.84;58.46;100789.66;7390411;19;1564;-37
2024/03/11 10:47:38;;;;;;;;;;;;;;;19.86;58.34;100785.00;7388623;19;1885;-37
2024/03/11 10:50:07;;;;;;;;;;;;;;;19.50;59.44;100809.75;7390469;19;1822;-37
2024/03/11 10:52:36;;;;;;;;;;;;;;;19.24;59.88;100792.34;7389699;19;1562;-37
2024/03/11 10:55:07;;;;;;;;;;;;;;;19.10;60.07;100784.69;7389417;19;1552;-37
2024/03/11 10:57:43;;;;;;;;;;;;;;;18.98;60.71;100773.22;7388565;19;1376;-37
2024/03/11 11:00:19;;;;;;;;;;;;;;;19.01;60.41;100772.09;6866189;19;9999716;-37
2024/03/11 11:02:49;;;;;;;;;;;;;;;19.46;59.37;100769.84;7379934;19;1450;-37
2024/03/11 11:05:21;;;;;;;;;;;;;;;19.84;58.61;100765.53;7382203;19;1499;-37
2024/03/11 11:07:53;;;;;;;;;;;;;;;19.52;58.38;100760.38;7381907;19;1870;-36
2024/03/11 11:10:23;;;;;;;;;;;;;;;19.11;60.32;100774.81;7382338;19;1429;-37
2024/03/11 11:12:54;;;;;;;;;;;;;;;18.92;60.77;100765.72;7388297;19;1303;-36
2024/03/11 11:15:23;;;;;;;;;;;;;;;18.85;60.88;100764.56;7384233;19;1554;-36
2024/03/11 11:17:54;;;;;;;;;;;;;;;18.80;61.13;100766.78;7386340;19;1421;-37
2024/03/11 11:23:10;;;;;;;;;;;;;;;18.72;61.24;100763.91;7384007;19;1458;-37
2024/03/11 11:25:39;;;;;;;;;;;;;;;18.64;61.36;100754.72;7369322;19;1147;-37
2024/03/11 11:28:13;;;;;;;;;;;;;;;18.64;61.64;100735.97;7384554;19;1863;-37
2024/03/11 11:30:43;;;;;;;;;;;;;;;18.63;61.61;100741.44;7385303;19;1495;-37
2024/03/11 11:33:12;;;;;;;;;;;;;;;18.66;61.40;100734.00;7386155;19;1619;-37
2024/03/11 11:35:44;;;;;;;;;;;;;;;18.69;61.16;100716.81;7388185;19;1194;-37
2024/03/11 11:38:27;;;;;;;;;;;;;;;18.67;61.56;100706.22;7388185;19;1141;-36
2024/03/11 11:40:56;;;;;;;;;;;;;;;18.68;61.47;100715.97;7388170;19;1590;-37
2024/03/11 11:43:44;;;;;;;;;;;;;;;19.07;60.49;100697.34;7388038;19;1544;-37
2024/03/11 11:46:13;;;;;;;;;;;;;;;19.11;60.18;100705.97;7388409;19;1452;-37
2024/03/11 11:48:41;;;;;;;;;;;;;;;19.03;60.50;100713.84;7387682;19;1854;-37
2024/03/11 11:51:09;;;;;;;;;;;;;;;18.96;60.86;100708.19;7388819;19;1535;-36
2024/03/11 11:53:38;;;;;;;;;;;;;;;18.80;60.97;100694.44;7388381;19;1591;-37
2024/03/11 11:56:09;;;;;;;;;;;;;;;18.79;60.95;100696.28;7388394;19;1684;-37
2024/03/11 11:58:40;;;;;;;;;;;;;;;18.75;61.23;100697.50;7388447;19;1583;-38
2024/03/11 12:01:10;;;;;;;;;;;;;;;18.62;61.45;100688.84;7387989;19;1294;-37
2024/03/11 12:03:38;;;;;;;;;;;;;;;18.61;61.43;100685.34;7388950;19;1003;-37
2024/03/11 12:06:09;;;;;;;;;;;;;;;18.62;61.41;100680.81;7388537;19;1525;-37
2024/03/11 12:08:38;;;;;;;;;;;;;;;18.60;61.51;100680.09;7387887;19;1867;-38
2024/03/11 12:11:15;;;;;;;;;;;;;;;18.76;61.31;100674.25;7388479;19;1411;-37
2024/03/11 12:13:46;;;;;;;;;;;;;;;19.03;60.66;100652.22;7388457;19;1495;-37
2024/03/11 12:16:20;;;;;;;;;;;;;;;18.94;60.66;100651.22;7388217;19;1098;-37
2024/03/11 12:18:59;;;;;;;;;;;;;;;18.88;61.04;100657.13;7386166;19;1718;-37
2024/03/11 12:21:29;;;;;;;;;;;;;;;18.80;61.15;100643.53;7387543;19;1097;-36
2024/03/11 12:23:57;;;;;;;;;;;;;;;18.65;61.64;100651.09;7387081;19;1488;-37
2024/03/11 12:26:27;;;;;;;;;;;;;;;18.61;61.61;100641.66;7372737;19;1497;-37
2024/03/11 12:29:07;;;;;;;;;;;;;;;18.61;61.61;100658.56;7387215;19;1886;-37
2024/03/11 12:31:37;;;;;;;;;;;;;;;18.57;61.59;100657.13;7393598;19;1064;-37
2024/03/11 12:34:09;;;;;;;;;;;;;;;18.54;61.70;100644.00;7395516;19;1807;-37
2024/03/11 12:36:39;;;;;;;;;;;;;;;18.40;61.98;100644.38;7395397;19;1592;-38
2024/03/11 12:39:16;;;;;;;;;;;;;;;18.60;61.62;100654.19;7395285;19;1534;-37
2024/03/11 12:41:44;;;;;;;;;;;;;;;19.00;60.75;100649.78;7395101;19;1117;-37
2024/03/11 12:44:19;;;;;;;;;;;;;;;18.92;60.87;100629.06;7395866;19;1071;-37
2024/03/11 12:46:50;;;;;;;;;;;;;;;18.78;61.16;100637.44;7395151;19;1265;-37
2024/03/11 12:49:19;;;;;;;;;;;;;;;18.50;61.25;100615.78;7393373;19;1860;-37
2024/03/11 12:51:47;;;;;;;;;;;;;;;18.75;61.36;100614.47;7394505;19;1615;-37
2024/03/11 12:54:22;;;;;;;;;;;;;;;18.63;61.37;100605.69;7394164;19;1491;-37
2024/03/11 12:57:07;;;;;;;;;;;;;;;18.63;61.44;100608.38;7394209;19;1611;-36
2024/03/11 12:59:40;;;;;;;;;;;;;;;18.55;61.67;100600.19;7395157;19;1665;-37
2024/03/11 13:02:15;;;;;;;;;;;;;;;18.59;61.48;100588.22;7394508;19;1670;-39
2024/03/11 13:04:46;;;;;;;;;;;;;;;18.56;61.74;100607.25;7390784;19;2495;-37